createdAt,value
2022-09-03T00:01:58.857Z,1.00
2022-09-03T00:05:09.940Z,0.93
2022-09-03T00:08:23.479Z,1.00
2022-09-03T00:11:19.568Z,0.90
2022-09-03T00:14:09.699Z,1.08
2022-09-03T00:17:04.292Z,0.80
2022-09-03T00:19:58.515Z,1.00
2022-09-03T00:22:48.742Z,0.80
2022-09-03T00:25:49.228Z,1.08
2022-09-03T00:28:45.032Z,0.88
2022-09-03T00:31:48.866Z,0.93
2022-09-03T00:34:41.471Z,1.13
2022-09-03T00:37:29.989Z,1.38
2022-09-03T00:40:34.441Z,1.10
2022-09-03T00:43:42.447Z,1.15
2022-09-03T00:46:56.431Z,1.15
2022-09-03T00:50:14.423Z,1.20
2022-09-03T00:53:31.450Z,1.33
2022-09-03T00:57:07.259Z,1.10
2022-09-03T01:00:33.516Z,1.35
2022-09-03T01:03:51.239Z,1.00
2022-09-03T01:06:54.758Z,1.20
2022-09-03T01:09:49.007Z,1.20
2022-09-03T01:12:51.442Z,1.00
2022-09-03T01:15:48.716Z,1.00
2022-09-03T01:18:54.701Z,1.20
2022-09-03T01:22:08.776Z,0.95
2022-09-03T01:25:12.132Z,1.20
2022-09-03T01:28:16.011Z,0.93
2022-09-03T01:31:35.329Z,1.20
2022-09-03T01:34:26.153Z,1.10
2022-09-03T01:37:30.273Z,1.33
2022-09-03T01:40:34.034Z,1.00
2022-09-03T01:43:41.011Z,1.20
2022-09-03T01:46:39.981Z,1.13
2022-09-03T01:49:45.065Z,1.10
2022-09-03T01:52:56.653Z,0.95
2022-09-03T01:56:07.933Z,1.00
2022-09-03T01:59:07.154Z,0.93
2022-09-03T02:02:20.099Z,1.13
2022-09-03T02:05:14.859Z,1.13
2022-09-03T02:08:05.394Z,1.20
2022-09-03T02:11:01.921Z,1.20
2022-09-03T02:13:54.962Z,1.02
2022-09-03T02:16:40.457Z,1.92
2022-09-03T02:19:27.977Z,1.23
2022-09-03T02:22:13.497Z,1.65
2022-09-03T02:24:59.596Z,1.00
2022-09-03T02:27:46.223Z,1.25
2022-09-03T02:30:31.778Z,1.30
2022-09-03T02:33:17.512Z,1.63
2022-09-03T02:36:05.451Z,1.05
2022-09-03T02:38:50.497Z,1.30
2022-09-03T02:41:35.873Z,1.20
2022-09-03T02:44:35.143Z,1.27
2022-09-03T02:47:25.645Z,1.20
2022-09-03T02:50:11.099Z,1.20
2022-09-03T02:52:56.462Z,1.00
2022-09-03T02:55:41.902Z,1.00
2022-09-03T02:58:28.091Z,1.10
2022-09-03T03:01:19.659Z,1.30
2022-09-03T03:04:09.709Z,1.00
2022-09-03T03:06:55.065Z,1.60
2022-09-03T03:09:40.488Z,1.30
2022-09-03T03:12:26.408Z,1.33
2022-09-03T03:15:11.802Z,1.23
2022-09-03T03:17:57.646Z,1.30
2022-09-03T03:20:43.900Z,1.20
2022-09-03T03:23:31.332Z,1.17
2022-09-03T03:26:19.010Z,1.20
2022-09-03T03:29:04.976Z,1.42
2022-09-03T03:31:50.815Z,1.20
2022-09-03T03:34:36.056Z,1.20
2022-09-03T03:37:21.517Z,1.25
2022-09-03T03:40:07.602Z,1.17
2022-09-03T03:42:53.543Z,1.10
2022-09-03T03:45:38.794Z,1.10
2022-09-03T03:48:24.783Z,1.33
2022-09-03T03:51:10.854Z,1.58
2022-09-03T03:54:00.186Z,1.40
2022-09-03T03:56:55.800Z,0.90
2022-09-03T03:59:40.989Z,1.25
2022-09-03T04:02:26.587Z,0.98
2022-09-03T04:05:11.639Z,1.38
2022-09-03T04:08:02.285Z,1.40
2022-09-03T04:10:48.150Z,1.10
2022-09-03T04:13:35.603Z,1.17
2022-09-03T04:16:23.207Z,1.40
2022-09-03T04:19:08.619Z,1.92
2022-09-03T04:21:54.132Z,1.00
2022-09-03T04:24:39.705Z,1.20
2022-09-03T04:27:24.787Z,0.93
2022-09-03T04:30:10.631Z,1.00
2022-09-03T04:32:56.203Z,1.20
2022-09-03T04:35:42.009Z,1.23
2022-09-03T04:38:29.767Z,1.48
2022-09-03T04:41:17.828Z,1.40
2022-09-03T04:44:03.281Z,1.90
2022-09-03T04:46:48.727Z,1.50
2022-09-03T04:49:34.573Z,1.50
2022-09-03T04:52:20.641Z,1.35
2022-09-03T04:55:06.489Z,1.38
2022-09-03T04:57:51.827Z,1.33
2022-09-03T05:00:38.099Z,1.15
2022-09-03T05:03:24.189Z,1.20
2022-09-03T05:06:10.076Z,1.60
2022-09-03T05:08:56.191Z,1.38
2022-09-03T05:11:41.572Z,1.13
2022-09-03T05:14:27.078Z,1.58
2022-09-03T05:17:12.381Z,1.20
2022-09-03T05:19:58.105Z,1.10
2022-09-03T05:22:43.131Z,1.40
2022-09-03T05:25:28.445Z,1.20
2022-09-03T05:28:14.582Z,1.40
2022-09-03T05:31:05.367Z,1.63
2022-09-03T05:33:53.382Z,1.65
2022-09-03T05:36:38.823Z,1.38
2022-09-03T05:39:24.776Z,1.25
2022-09-03T05:42:09.996Z,1.40
2022-09-03T05:44:55.311Z,1.52
2022-09-03T05:47:40.728Z,1.63
2022-09-03T05:50:26.156Z,1.48
2022-09-03T05:53:11.552Z,1.63
2022-09-03T05:56:00.045Z,1.48
2022-09-03T05:58:51.118Z,1.67
2022-09-03T06:01:39.312Z,1.73
2022-09-03T06:04:24.832Z,1.60
2022-09-03T06:07:10.240Z,1.80
2022-09-03T06:09:56.251Z,1.52
2022-09-03T06:12:41.549Z,1.70
2022-09-03T06:15:26.904Z,1.77
2022-09-03T06:18:12.341Z,1.95
2022-09-03T06:21:00.128Z,1.52
2022-09-03T06:23:51.593Z,1.70
2022-09-03T06:26:36.917Z,1.63
2022-09-03T06:29:21.965Z,1.83
2022-09-03T06:32:07.441Z,1.50
2022-09-03T06:34:52.646Z,1.75
2022-09-03T06:37:41.983Z,1.70
2022-09-03T06:40:27.142Z,1.80
2022-09-03T06:43:12.685Z,1.85
2022-09-03T06:46:00.350Z,1.70
2022-09-03T06:48:46.616Z,2.08
2022-09-03T06:51:33.329Z,2.00
2022-09-03T06:54:18.663Z,1.45
2022-09-03T06:57:04.426Z,1.83
2022-09-03T06:59:49.649Z,1.65
2022-09-03T07:02:34.961Z,2.00
2022-09-03T07:05:20.199Z,1.75
2022-09-03T07:08:05.544Z,2.00
2022-09-03T07:10:51.185Z,1.20
2022-09-03T07:13:43.139Z,1.55
2022-09-03T07:16:36.444Z,1.77
2022-09-03T07:19:21.589Z,1.20
2022-09-03T07:22:07.864Z,1.50
2022-09-03T07:24:53.360Z,1.63
2022-09-03T07:27:38.797Z,1.40
2022-09-03T07:30:26.349Z,1.50
2022-09-03T07:33:11.417Z,1.23
2022-09-03T07:36:01.975Z,1.90
2022-09-03T07:38:47.543Z,1.20
2022-09-03T07:41:33.370Z,1.45
2022-09-03T07:44:19.527Z,1.00
2022-09-03T07:47:06.363Z,1.60
2022-09-03T07:49:51.370Z,1.02
2022-09-03T07:52:36.702Z,0.90
2022-09-03T07:55:22.161Z,1.33
2022-09-03T07:58:07.788Z,1.00
2022-09-03T08:00:53.055Z,1.05
2022-09-03T08:03:42.814Z,0.93
2022-09-03T08:06:29.375Z,1.20
2022-09-03T08:09:14.659Z,1.10
2022-09-03T08:12:00.161Z,1.20
2022-09-03T08:14:45.300Z,1.05
2022-09-03T08:17:30.757Z,1.30
2022-09-03T08:20:16.130Z,1.30
2022-09-03T08:23:04.463Z,1.17
2022-09-03T08:25:49.953Z,1.17
2022-09-03T08:28:36.525Z,1.10
2022-09-03T08:31:24.965Z,1.10
2022-09-03T08:34:11.900Z,1.20
2022-09-03T08:36:58.987Z,1.17
2022-09-03T08:39:44.703Z,1.35
2022-09-03T08:42:56.385Z,1.50
2022-09-03T08:45:42.142Z,1.35
2022-09-03T08:48:28.396Z,1.17
2022-09-03T08:51:17.094Z,1.38
2022-09-03T08:54:02.952Z,1.50
2022-09-03T08:56:48.693Z,1.23
2022-09-03T08:59:33.790Z,1.20
2022-09-03T09:02:56.997Z,1.10
2022-09-03T09:05:55.546Z,1.35
2022-09-03T09:09:17.721Z,1.10
2022-09-03T09:12:46.988Z,1.08
2022-09-03T09:15:52.318Z,1.30
2022-09-03T09:19:05.255Z,1.08
2022-09-03T09:21:55.983Z,1.42
2022-09-03T09:24:50.743Z,1.13
2022-09-03T09:27:36.110Z,1.33
2022-09-03T09:30:22.035Z,1.60
2022-09-03T09:33:07.341Z,1.10
2022-09-03T09:35:52.891Z,1.10
2022-09-03T09:38:39.709Z,1.65
2022-09-03T09:41:29.536Z,1.23
2022-09-03T09:44:21.532Z,1.50
2022-09-03T09:47:26.324Z,1.40
2022-09-03T09:50:26.065Z,1.20
2022-09-03T09:53:17.854Z,1.40
2022-09-03T09:56:03.293Z,1.20
2022-09-03T09:58:49.192Z,1.13
2022-09-03T10:01:38.660Z,1.40
2022-09-03T10:04:33.453Z,1.33
2022-09-03T10:07:32.035Z,1.40
2022-09-03T10:10:20.952Z,1.75
2022-09-03T10:13:14.721Z,1.40
2022-09-03T10:16:09.808Z,1.40
2022-09-03T10:19:06.352Z,1.25
2022-09-03T10:22:20.452Z,1.35
2022-09-03T10:25:07.724Z,1.50
2022-09-03T10:27:56.699Z,1.30
2022-09-03T10:30:57.458Z,1.20
2022-09-03T10:33:51.287Z,1.30
2022-09-03T10:36:59.815Z,1.27
2022-09-03T10:39:52.150Z,1.08
2022-09-03T10:42:51.623Z,1.20
2022-09-03T10:46:10.351Z,1.00
2022-09-03T10:49:20.544Z,1.05
2022-09-03T10:52:26.510Z,1.40
2022-09-03T10:55:26.117Z,1.13
2022-09-03T10:58:38.233Z,1.25
2022-09-03T11:01:54.547Z,1.17
2022-09-03T11:05:00.283Z,1.48
2022-09-03T11:07:51.843Z,1.27
2022-09-03T11:10:43.585Z,1.42
2022-09-03T11:16:30.984Z,1.08
2022-09-03T11:22:05.240Z,1.20
2022-09-03T11:24:58.078Z,1.52
2022-09-03T11:27:43.236Z,1.17
2022-09-03T11:30:57.383Z,1.33
2022-09-03T11:34:07.251Z,1.20
2022-09-03T11:37:25.064Z,1.20
2022-09-03T11:40:18.241Z,1.25
2022-09-03T11:43:27.931Z,1.30
2022-09-03T11:46:21.653Z,1.40
2022-09-03T11:49:13.448Z,1.15
2022-09-03T11:52:01.472Z,1.40
2022-09-03T11:54:47.332Z,1.98
2022-09-03T11:57:33.495Z,1.60
2022-09-03T12:00:22.478Z,1.60
2022-09-03T12:03:08.074Z,1.50
2022-09-03T12:06:22.995Z,1.20
2022-09-03T12:09:36.317Z,1.40
2022-09-03T12:12:27.994Z,1.45
2022-09-03T12:15:39.178Z,1.30
2022-09-03T12:18:31.923Z,1.23
2022-09-03T12:21:17.580Z,1.15
2022-09-03T12:24:03.043Z,1.17
2022-09-03T12:26:48.335Z,1.30
2022-09-03T12:29:33.710Z,1.45
2022-09-03T12:32:18.947Z,1.10
2022-09-03T12:38:27.576Z,1.08
2022-09-03T12:41:28.223Z,1.38
2022-09-03T12:44:13.672Z,1.05
2022-09-03T12:50:20.995Z,1.00
2022-09-03T12:53:06.745Z,1.42
2022-09-03T12:55:57.058Z,1.50
2022-09-03T12:58:55.999Z,1.13
2022-09-03T13:01:52.817Z,1.38
2022-09-03T13:04:40.149Z,1.40
2022-09-03T13:07:36.408Z,1.20
2022-09-03T13:10:33.722Z,1.20
2022-09-03T13:13:32.547Z,1.10
2022-09-03T13:16:45.161Z,1.08
2022-09-03T13:20:07.169Z,1.20
2022-09-03T13:23:13.538Z,1.50
2022-09-03T13:26:21.396Z,1.02
2022-09-03T13:29:19.951Z,1.35
2022-09-03T13:32:40.598Z,1.10
2022-09-03T13:35:44.814Z,1.30
2022-09-03T13:38:39.855Z,1.10
2022-09-03T13:41:49.429Z,1.30
2022-09-03T13:44:52.200Z,1.40
2022-09-03T13:48:17.825Z,1.33
2022-09-03T13:51:16.404Z,1.30
2022-09-03T13:54:48.016Z,1.27
2022-09-03T13:58:05.033Z,1.15
2022-09-03T14:00:59.586Z,1.20
2022-09-03T14:03:55.984Z,1.73
2022-09-03T14:06:54.395Z,1.50
2022-09-03T14:10:02.056Z,1.60
2022-09-03T14:13:00.239Z,1.27
2022-09-03T14:15:57.973Z,1.25
2022-09-03T14:19:06.780Z,1.33
2022-09-03T14:22:25.735Z,1.23
2022-09-03T14:25:21.665Z,1.48
2022-09-03T14:28:16.043Z,1.20
2022-09-03T14:31:12.904Z,1.50
2022-09-03T14:34:26.577Z,1.23
2022-09-03T14:37:16.157Z,1.35
2022-09-03T14:40:13.613Z,1.20
2022-09-03T14:43:19.991Z,1.25
2022-09-03T14:46:33.158Z,1.50
2022-09-03T14:49:39.749Z,1.30
2022-09-03T14:52:33.789Z,1.60
2022-09-03T14:55:30.960Z,1.42
2022-09-03T14:58:25.147Z,1.90
2022-09-03T15:01:26.079Z,1.90
2022-09-03T15:04:37.155Z,1.63
2022-09-03T15:07:51.008Z,1.77
2022-09-03T15:10:46.350Z,1.75
2022-09-03T15:13:37.453Z,1.35
2022-09-03T15:16:51.816Z,1.20
2022-09-03T15:19:56.450Z,1.30
2022-09-03T15:23:06.545Z,1.50
2022-09-03T15:26:16.945Z,1.50
2022-09-03T15:29:26.424Z,1.30
2022-09-03T15:32:26.677Z,1.30
2022-09-03T15:35:52.159Z,1.30
2022-09-03T15:39:00.642Z,1.40
2022-09-03T15:42:11.078Z,1.30
2022-09-03T15:45:04.419Z,1.50
2022-09-03T15:47:56.046Z,1.58
2022-09-03T15:51:09.973Z,1.52
2022-09-03T15:54:07.616Z,1.52
2022-09-03T15:57:02.393Z,1.50
2022-09-03T16:00:21.533Z,1.50
2022-09-03T16:03:20.428Z,1.42
2022-09-03T16:06:42.177Z,1.83
2022-09-03T16:09:37.733Z,1.80
2022-09-03T16:12:30.912Z,1.73
2022-09-03T16:15:19.749Z,1.47
2022-09-03T16:18:12.824Z,1.55
2022-09-03T16:21:03.718Z,2.00
2022-09-03T16:24:00.898Z,1.77
2022-09-03T16:27:00.553Z,2.22
2022-09-03T16:29:58.868Z,2.00
2022-09-03T16:33:09.419Z,1.80
2022-09-03T16:36:06.444Z,1.63
2022-09-03T16:39:11.096Z,2.00
2022-09-03T16:42:05.195Z,2.33
2022-09-03T16:45:05.525Z,1.90
2022-09-03T16:48:04.335Z,2.63
2022-09-03T16:50:58.464Z,2.40
2022-09-03T16:54:05.943Z,2.33
2022-09-03T16:57:11.228Z,2.70
2022-09-03T17:00:14.628Z,2.97
2022-09-03T17:03:28.268Z,2.67
2022-09-03T17:06:27.328Z,2.33
2022-09-03T17:09:30.878Z,2.33
2022-09-03T17:12:19.117Z,2.10
2022-09-03T17:15:07.756Z,1.80
2022-09-03T17:18:21.031Z,2.20
2022-09-03T17:21:45.968Z,2.15
2022-09-03T17:24:42.381Z,2.00
2022-09-03T17:28:05.300Z,2.20
2022-09-03T17:30:56.015Z,1.90
2022-09-03T17:34:13.547Z,2.20
2022-09-03T17:37:21.049Z,1.88
2022-09-03T17:40:22.539Z,1.83
2022-09-03T17:43:32.846Z,1.75
2022-09-03T17:46:30.748Z,2.22
2022-09-03T17:49:26.151Z,2.30
2022-09-03T17:52:35.332Z,1.92
2022-09-03T17:55:32.247Z,1.85
2022-09-03T17:58:24.967Z,2.00
2022-09-03T18:01:10.096Z,2.13
2022-09-03T18:04:23.147Z,2.20
2022-09-03T18:07:18.647Z,2.40
2022-09-03T18:10:13.109Z,2.55
2022-09-03T18:13:23.642Z,2.05
2022-09-03T18:16:32.608Z,2.35
2022-09-03T18:20:03.251Z,2.13
2022-09-03T18:23:25.696Z,2.63
2022-09-03T18:26:38.068Z,2.50
2022-09-03T18:32:58.245Z,2.35
2022-09-03T18:36:04.269Z,2.15
2022-09-03T18:39:08.949Z,2.20
2022-09-03T18:42:26.575Z,2.40
2022-09-03T18:45:48.856Z,2.25
2022-09-03T18:49:27.230Z,2.40
2022-09-03T18:52:47.462Z,2.15
2022-09-03T18:56:02.805Z,3.05
2022-09-03T18:59:48.052Z,2.72
2022-09-03T19:03:09.375Z,3.08
2022-09-03T19:06:39.096Z,2.97
2022-09-03T19:10:05.731Z,3.47
2022-09-03T19:13:33.433Z,3.47
2022-09-03T19:17:01.830Z,2.90
2022-09-03T19:20:05.819Z,2.85
2022-09-03T19:23:09.886Z,2.90
2022-09-03T19:26:19.463Z,3.72
2022-09-03T19:29:41.863Z,3.33
2022-09-03T19:33:17.100Z,2.75
2022-09-03T19:37:02.513Z,3.05
2022-09-03T19:40:06.433Z,3.55
2022-09-03T19:43:19.423Z,3.38
2022-09-03T19:46:48.582Z,3.35
2022-09-03T19:50:21.347Z,3.40
2022-09-03T19:53:36.297Z,2.95
2022-09-03T19:56:47.524Z,3.28
2022-09-03T20:00:00.124Z,2.97
2022-09-03T20:06:11.574Z,2.90
2022-09-03T20:09:24.515Z,3.22
2022-09-03T20:12:11.865Z,2.50
2022-09-03T20:14:57.017Z,2.55
2022-09-03T20:18:29.322Z,2.67
2022-09-03T20:21:33.336Z,2.33
2022-09-03T20:24:24.755Z,2.55
2022-09-03T20:27:54.327Z,2.20
2022-09-03T20:30:59.904Z,2.05
2022-09-03T20:33:45.438Z,1.98
2022-09-03T20:36:43.879Z,1.95
2022-09-03T20:40:08.508Z,2.50
2022-09-03T20:42:53.611Z,1.77
2022-09-03T20:46:07.784Z,2.22
2022-09-03T20:49:24.243Z,2.40
2022-09-03T20:52:09.348Z,2.50
2022-09-03T20:55:08.080Z,2.50
2022-09-03T20:58:14.971Z,2.10
2022-09-03T21:01:17.604Z,2.42
2022-09-03T21:04:26.165Z,2.42
2022-09-03T21:07:40.181Z,2.67
2022-09-03T21:10:41.932Z,2.33
2022-09-03T21:13:57.112Z,3.47
2022-09-03T21:17:10.355Z,3.92
2022-09-03T21:20:32.767Z,2.20
2022-09-03T21:23:28.536Z,2.55
2022-09-03T21:26:39.763Z,2.90
2022-09-03T21:29:32.594Z,2.20
2022-09-03T21:32:22.880Z,2.67
2022-09-03T21:35:30.696Z,2.75
2022-09-03T21:38:21.506Z,2.65
2022-09-03T21:41:28.365Z,2.55
2022-09-03T21:44:25.467Z,2.40
2022-09-03T21:47:15.744Z,2.25
2022-09-03T21:50:22.616Z,2.22
2022-09-03T21:53:29.753Z,2.05
2022-09-03T21:56:48.785Z,2.10
2022-09-03T21:59:52.222Z,2.13
2022-09-03T22:02:38.050Z,2.28
2022-09-03T22:05:23.938Z,2.00
2022-09-03T22:08:36.539Z,1.70
2022-09-03T22:14:17.326Z,2.33
2022-09-03T22:17:10.687Z,1.92
2022-09-03T22:19:56.618Z,1.80
2022-09-03T22:22:47.919Z,2.15
2022-09-03T22:25:44.701Z,2.00
2022-09-03T22:28:52.271Z,2.20
2022-09-03T22:31:57.128Z,1.67
2022-09-03T22:34:54.199Z,1.98
2022-09-03T22:37:48.193Z,2.20
2022-09-03T22:40:46.607Z,1.98
2022-09-03T22:43:50.788Z,1.90
2022-09-03T22:47:23.902Z,2.00
2022-09-03T22:50:30.940Z,2.20
2022-09-03T22:53:47.311Z,2.05
2022-09-03T22:56:37.984Z,2.63
2022-09-03T22:59:38.951Z,2.10
2022-09-03T23:02:27.678Z,2.13
2022-09-03T23:05:13.076Z,2.08
2022-09-03T23:08:17.757Z,2.05
2022-09-03T23:11:12.561Z,2.58
2022-09-03T23:14:06.045Z,2.55
2022-09-03T23:17:16.743Z,2.50
2022-09-03T23:23:17.863Z,2.70
2022-09-03T23:26:37.426Z,2.60
2022-09-03T23:29:46.675Z,2.75
2022-09-03T23:32:33.201Z,2.80
2022-09-03T23:35:19.537Z,2.40
2022-09-03T23:38:36.323Z,2.80
2022-09-03T23:41:33.184Z,3.00
2022-09-03T23:44:45.197Z,2.80
2022-09-03T23:47:53.867Z,2.70
2022-09-03T23:51:10.301Z,2.97
2022-09-03T23:54:29.163Z,2.83
2022-09-03T23:57:37.651Z,2.80
